»·PEaware :: FDX5954 KELP-KTUS

FDX5954 :: KELP-KTUS

FLIGHT INFORMATION

Flight Status: Arrived
Operator:
Federal Express
More flights by this operator :: More flights under this callsign
Pilot: Joshua M. (19482)
Aircraft: BOEING 737-800
(B738)
More flights by this aircraft type
Origin: KELP El Paso Intl
United States
Destination: KTUS Tucson Intl
United States
More flights between these airports :: More routes between these airports
Route: +ATKNN5 FLOGS SSAND
File this flight plan on PilotEdge
Remarks: Outdated FMC Default XPlane
Altitude:
(Current/Filed)
28,000ft
Speed:
(Current/Filed)
450kts
Departed: 29-Jul-18 07:22 PM
Arrived: 29-Jul-18 08:15 PM
Distance/Time
Traveled:
233nm/0:53
Distance/Time
To Go:
Arrived

Flight Plot

Page will automatically refresh every two minutes.

Flight plan parsing failed; only flown route is shown


Map Options




Map Legend


Flown Route
Filed Route
Departure Airport
Arrival Airport
Navaid (VOR, NDB)
Fix

Horizontal Profiles

Position Reports

Time Latitude Longitude Heading Altitude Ground
Speed
29-Jul-18 18:50 31.816522 -106.371271 141 3965ft 0kts
29-Jul-18 18:51 31.816522 -106.371271 141 3965ft 0kts
29-Jul-18 18:52 31.816522 -106.371271 141 3965ft 0kts
29-Jul-18 18:53 31.816522 -106.371271 141 3965ft 0kts
29-Jul-18 18:54 31.816522 -106.371271 141 3965ft 0kts
29-Jul-18 18:55 31.816522 -106.371271 141 3965ft 0kts
29-Jul-18 18:56 31.816522 -106.371271 141 3965ft 0kts
29-Jul-18 18:57 31.816522 -106.371271 141 3965ft 0kts
29-Jul-18 18:58 31.816522 -106.371271 141 3965ft 0kts
29-Jul-18 18:59 31.816522 -106.371271 141 3965ft 0kts
29-Jul-18 19:00 31.816522 -106.371271 141 3965ft 0kts
29-Jul-18 19:01 31.816522 -106.371271 141 3965ft 0kts
29-Jul-18 19:02 31.816522 -106.371271 141 3965ft 0kts
29-Jul-18 19:03 31.816522 -106.371271 141 3965ft 0kts
29-Jul-18 19:04 31.816522 -106.371271 141 3965ft 0kts
29-Jul-18 19:05 31.816522 -106.371271 141 3965ft 0kts
29-Jul-18 19:06 31.816522 -106.371271 141 3965ft 0kts
29-Jul-18 19:07 31.816522 -106.371271 141 3965ft 0kts
29-Jul-18 19:08 31.816522 -106.371271 141 3965ft 0kts
29-Jul-18 19:09 31.816522 -106.371271 141 3965ft 0kts
29-Jul-18 19:10 31.816522 -106.371271 141 3965ft 0kts
29-Jul-18 19:11 31.816522 -106.371271 141 3965ft 0kts
29-Jul-18 19:12 31.816254 -106.371016 141 3965ft 0kts
29-Jul-18 19:13 31.816082 -106.370883 150 3965ft 1kts
29-Jul-18 19:14 31.816077 -106.371236 277 3965ft 8kts
29-Jul-18 19:15 31.816650 -106.372489 302 3965ft 12kts
29-Jul-18 19:16 31.817900 -106.373155 125 3965ft 0kts
29-Jul-18 19:17 31.817900 -106.373155 125 3965ft 0kts
29-Jul-18 19:18 31.817835 -106.372921 78 3965ft 0kts
29-Jul-18 19:19 31.819274 -106.371275 47 3965ft 26kts
29-Jul-18 19:20 31.821683 -106.369040 320 3965ft 6kts
29-Jul-18 19:21 31.822006 -106.369356 320 3966ft 0kts
29-Jul-18 19:22 31.822487 -106.370107 286 3965ft 8kts
29-Jul-18 19:23 31.819105 -106.375254 231 3965ft 73kts
29-Jul-18 19:24 31.809128 -106.389164 229 3966ft 143kts
29-Jul-18 19:25 31.772744 -106.454943 246 4904ft 222kts
29-Jul-18 19:26 31.768105 -106.514928 300 6378ft 232kts
29-Jul-18 19:27 31.807918 -106.588141 288 8487ft 239kts
29-Jul-18 19:28 31.821116 -106.653267 281 10020ft 243kts
29-Jul-18 19:29 31.834099 -106.725027 281 11751ft 249kts
29-Jul-18 19:30 31.850167 -106.813697 281 13639ft 264kts
29-Jul-18 19:31 31.868152 -106.913351 281 14656ft 315kts
29-Jul-18 19:32 31.887272 -107.019578 281 16078ft 344kts
29-Jul-18 19:33 31.907206 -107.130769 282 17907ft 354kts
29-Jul-18 19:34 31.927688 -107.245564 282 19660ft 364kts
29-Jul-18 19:35 31.948590 -107.363314 282 21352ft 373kts
29-Jul-18 19:36 31.969871 -107.483856 283 22918ft 381kts
29-Jul-18 19:37 31.991372 -107.606326 283 24388ft 388kts
29-Jul-18 19:38 32.013120 -107.730875 283 25768ft 394kts
29-Jul-18 19:39 32.035056 -107.857224 283 27039ft 399kts
29-Jul-18 19:40 32.057147 -107.985245 283 28066ft 408kts
29-Jul-18 19:41 32.080552 -108.121459 283 28072ft 441kts
29-Jul-18 19:42 32.104908 -108.264331 283 28068ft 463kts
29-Jul-18 19:43 32.129382 -108.409182 283 28066ft 464kts
29-Jul-18 19:44 32.153127 -108.550736 283 28066ft 464kts
29-Jul-18 19:45 32.176723 -108.692592 282 27454ft 437kts
29-Jul-18 19:46 32.199172 -108.828405 282 26444ft 426kts
29-Jul-18 19:47 32.221510 -108.964350 282 25445ft 420kts
29-Jul-18 19:48 32.243397 -109.098481 282 24452ft 416kts
29-Jul-18 19:49 32.250743 -109.231275 265 23491ft 414kts
29-Jul-18 19:50 32.239544 -109.363385 265 22510ft 408kts
29-Jul-18 19:51 32.228391 -109.494459 265 21525ft 402kts
29-Jul-18 19:52 32.217429 -109.624699 264 20532ft 396kts
29-Jul-18 19:53 32.206867 -109.751762 264 19540ft 390kts
29-Jul-18 19:54 32.196458 -109.878410 264 17347ft 390kts
29-Jul-18 19:55 32.186242 -110.003992 264 15082ft 383kts
29-Jul-18 19:56 32.177014 -110.118512 264 13008ft 354kts
29-Jul-18 19:57 32.168132 -110.229742 264 11966ft 322kts
29-Jul-18 19:58 32.160149 -110.330565 264 11990ft 309kts
29-Jul-18 19:59 32.152194 -110.431008 264 11990ft 310kts
29-Jul-18 20:00 32.145139 -110.519237 264 11990ft 310kts
29-Jul-18 20:01 32.162602 -110.606524 299 10840ft 305kts
29-Jul-18 20:02 32.198951 -110.682122 299 9989ft 291kts
29-Jul-18 20:03 32.236855 -110.760660 299 9990ft 290kts
29-Jul-18 20:04 32.273691 -110.836928 299 9990ft 290kts
29-Jul-18 20:05 32.310568 -110.913225 299 9990ft 290kts
29-Jul-18 20:06 32.349668 -110.994062 299 9990ft 290kts
29-Jul-18 20:07 32.384217 -111.077068 277 9988ft 284kts
29-Jul-18 20:08 32.356653 -111.149823 220 9330ft 245kts
29-Jul-18 20:09 32.298277 -111.169008 147 8327ft 236kts
29-Jul-18 20:10 32.258497 -111.110525 130 6692ft 231kts
29-Jul-18 20:11 32.218965 -111.060553 134 5378ft 195kts
29-Jul-18 20:12 32.189682 -111.025839 135 4463ft 164kts
29-Jul-18 20:13 32.163006 -110.994452 135 3769ft 161kts
29-Jul-18 20:14 32.142470 -110.970175 135 3201ft 158kts
29-Jul-18 20:15 32.119763 -110.943714 134 2652ft 141kts
29-Jul-18 20:16 32.111351 -110.932439 80 2650ft 1kts
29-Jul-18 20:17 32.111363 -110.932362 79 2650ft 0kts
29-Jul-18 20:18 32.112604 -110.932705 319 2650ft 11kts
29-Jul-18 20:19 32.114744 -110.931695 81 2650ft 6kts

Navigation Log

Ident Type
Flight plan parsing failed, navigation log unavailable